createdAt,value
2017-06-21T00:00:01.613Z,20.10
2017-06-21T00:02:29.857Z,20.00
2017-06-21T00:04:57.337Z,20.00
2017-06-21T00:07:24.837Z,19.80
2017-06-21T00:09:52.369Z,19.80
2017-06-21T00:12:20.893Z,19.70
2017-06-21T00:14:49.366Z,19.70
2017-06-21T00:17:17.781Z,19.70
2017-06-21T00:19:45.261Z,19.70
2017-06-21T00:22:13.534Z,19.70
2017-06-21T00:24:41.790Z,19.80
2017-06-21T00:27:09.270Z,19.70
2017-06-21T00:29:37.537Z,19.70
2017-06-21T00:32:05.013Z,19.70
2017-06-21T00:34:33.258Z,19.70
2017-06-21T00:37:00.757Z,19.60
2017-06-21T00:39:28.237Z,19.60
2017-06-21T00:41:55.716Z,19.60
2017-06-21T00:44:23.245Z,19.60
2017-06-21T00:46:50.725Z,19.60
2017-06-21T00:49:18.201Z,19.60
2017-06-21T00:51:45.701Z,19.70
2017-06-21T00:54:13.181Z,19.60
2017-06-21T00:56:40.923Z,19.60
2017-06-21T00:59:08.427Z,19.50
2017-06-21T01:01:35.913Z,19.50
2017-06-21T01:04:04.157Z,19.50
2017-06-21T01:06:31.658Z,19.50
2017-06-21T01:08:59.908Z,19.20
2017-06-21T01:11:27.393Z,19.30
2017-06-21T01:13:54.896Z,19.20
2017-06-21T01:16:22.378Z,19.10
2017-06-21T01:18:49.857Z,19.20
2017-06-21T01:21:18.120Z,19.10
2017-06-21T01:23:46.377Z,19.00
2017-06-21T01:26:13.853Z,19.00
2017-06-21T01:28:42.121Z,19.00
2017-06-21T01:31:09.600Z,19.00
2017-06-21T01:33:37.844Z,19.00
2017-06-21T01:36:05.346Z,19.00
2017-06-21T01:38:32.825Z,18.90
2017-06-21T01:41:00.305Z,18.80
2017-06-21T01:43:27.813Z,18.70
2017-06-21T01:45:55.294Z,18.60
2017-06-21T01:48:22.789Z,18.40
2017-06-21T01:50:50.518Z,18.40
2017-06-21T01:53:18.005Z,18.30
2017-06-21T01:55:45.486Z,18.30
2017-06-21T01:58:13.755Z,18.20
2017-06-21T02:00:42.002Z,18.30
2017-06-21T02:03:09.480Z,18.30
2017-06-21T02:05:36.993Z,18.30
2017-06-21T02:08:04.553Z,18.40
2017-06-21T02:10:32.034Z,18.50
2017-06-21T02:12:59.533Z,18.50
2017-06-21T02:15:27.780Z,18.60
2017-06-21T02:17:56.039Z,18.70
2017-06-21T02:20:23.537Z,18.70
2017-06-21T02:22:51.782Z,18.50
2017-06-21T02:25:19.265Z,18.50
2017-06-21T02:27:47.530Z,18.40
2017-06-21T02:30:16.029Z,18.30
2017-06-21T02:32:44.278Z,18.20
2017-06-21T02:35:11.782Z,18.20
2017-06-21T02:37:39.261Z,18.20
2017-06-21T02:40:06.742Z,18.20
2017-06-21T02:42:34.241Z,18.30
2017-06-21T02:45:01.819Z,18.30
2017-06-21T02:47:29.297Z,18.30
2017-06-21T02:49:56.797Z,18.20
2017-06-21T02:52:25.041Z,17.80
2017-06-21T02:54:52.525Z,17.80
2017-06-21T02:57:20.830Z,17.80
2017-06-21T02:59:48.346Z,17.80
2017-06-21T03:02:15.862Z,17.80
2017-06-21T03:04:43.365Z,17.80
2017-06-21T03:07:10.845Z,17.90
2017-06-21T03:09:39.090Z,17.80
2017-06-21T03:12:06.589Z,17.80
2017-06-21T03:14:34.069Z,17.80
2017-06-21T03:17:01.549Z,17.80
2017-06-21T03:19:29.045Z,17.80
2017-06-21T03:21:57.565Z,17.90
2017-06-21T03:24:25.045Z,17.90
2017-06-21T03:26:52.553Z,17.90
2017-06-21T03:29:20.037Z,17.90
2017-06-21T03:31:47.516Z,17.90
2017-06-21T03:34:15.013Z,17.90
2017-06-21T03:36:43.257Z,17.90
2017-06-21T03:39:10.733Z,17.90
2017-06-21T03:41:39.105Z,17.90
2017-06-21T03:44:06.590Z,17.90
2017-06-21T03:46:34.073Z,17.90
2017-06-21T03:49:01.576Z,18.00
2017-06-21T03:51:29.085Z,18.10
2017-06-21T03:53:56.566Z,18.10
2017-06-21T03:56:24.066Z,18.10
2017-06-21T03:58:52.313Z,18.20
2017-06-21T04:01:19.792Z,18.20
2017-06-21T04:03:48.057Z,18.20
2017-06-21T04:06:15.537Z,18.20
2017-06-21T04:08:43.086Z,18.30
2017-06-21T04:11:11.466Z,18.40
2017-06-21T04:13:39.713Z,18.50
2017-06-21T04:16:07.194Z,18.50
2017-06-21T04:18:35.461Z,18.50
2017-06-21T04:21:03.705Z,18.60
2017-06-21T04:23:31.210Z,18.60
2017-06-21T04:25:59.511Z,18.70
2017-06-21T04:28:27.026Z,18.70
2017-06-21T04:30:55.278Z,18.90
2017-06-21T04:33:22.778Z,18.90
2017-06-21T04:35:51.025Z,19.10
2017-06-21T04:38:18.504Z,19.00
2017-06-21T04:40:46.785Z,19.10
2017-06-21T04:43:15.030Z,19.30
2017-06-21T04:45:42.610Z,19.30
2017-06-21T04:48:10.877Z,19.30
2017-06-21T04:50:39.129Z,19.40
2017-06-21T04:53:06.610Z,19.30
2017-06-21T04:55:34.881Z,19.30
2017-06-21T04:58:02.391Z,19.30
2017-06-21T05:00:29.903Z,19.30
2017-06-21T05:02:58.177Z,19.40
2017-06-21T05:05:26.424Z,20.00
2017-06-21T05:07:53.901Z,20.00
2017-06-21T05:10:21.782Z,21.30
2017-06-21T05:12:50.029Z,23.20
2017-06-21T05:15:17.509Z,23.10
2017-06-21T05:17:45.814Z,24.30
2017-06-21T05:20:13.335Z,24.30
2017-06-21T05:22:40.820Z,24.90
2017-06-21T05:25:11.215Z,25.50
2017-06-21T05:27:38.730Z,25.80
2017-06-21T05:30:06.247Z,26.00
2017-06-21T05:32:34.559Z,26.90
2017-06-21T05:35:02.082Z,26.90
2017-06-21T05:37:30.362Z,27.20
2017-06-21T05:39:58.700Z,27.70
2017-06-21T05:42:26.214Z,27.60
2017-06-21T05:44:54.007Z,27.80
2017-06-21T05:47:21.579Z,28.00
2017-06-21T05:49:49.095Z,28.20
2017-06-21T05:52:16.614Z,28.40
2017-06-21T05:54:44.155Z,28.10
2017-06-21T05:57:11.671Z,27.90
2017-06-21T05:59:39.187Z,28.40
2017-06-21T06:02:06.726Z,29.40
2017-06-21T06:04:34.208Z,29.70
2017-06-21T06:07:01.722Z,29.80
2017-06-21T06:09:29.263Z,29.40
2017-06-21T06:11:56.778Z,29.30
2017-06-21T06:14:24.294Z,29.30
2017-06-21T06:16:52.146Z,29.30
2017-06-21T06:19:19.662Z,29.20
2017-06-21T06:21:47.176Z,29.20
2017-06-21T06:24:14.718Z,29.20
2017-06-21T06:26:42.206Z,29.40
2017-06-21T06:29:09.685Z,30.00
2017-06-21T06:31:37.201Z,30.80
2017-06-21T06:34:04.681Z,31.00
2017-06-21T06:36:32.162Z,30.70
2017-06-21T06:38:59.662Z,30.40
2017-06-21T06:41:27.141Z,30.10
2017-06-21T06:43:54.620Z,30.10
2017-06-21T06:46:22.522Z,30.90
2017-06-21T06:48:50.770Z,30.60
2017-06-21T06:51:18.254Z,30.60
2017-06-21T06:53:46.521Z,30.90
2017-06-21T06:56:14.765Z,31.00
2017-06-21T06:58:42.245Z,30.90
2017-06-21T07:01:09.745Z,31.00
2017-06-21T07:03:37.265Z,30.90
2017-06-21T07:06:05.513Z,30.70
2017-06-21T07:08:33.012Z,30.70
2017-06-21T07:11:01.261Z,30.80
2017-06-21T07:13:28.742Z,30.80
2017-06-21T07:15:57.021Z,31.00
2017-06-21T07:18:25.273Z,31.10
2017-06-21T07:20:52.760Z,31.10
2017-06-21T07:23:20.266Z,31.10
2017-06-21T07:25:47.752Z,30.90
2017-06-21T07:28:16.002Z,30.50
2017-06-21T07:30:43.509Z,30.40
2017-06-21T07:33:11.058Z,29.90
2017-06-21T07:35:39.337Z,30.00
2017-06-21T07:38:07.602Z,30.20
2017-06-21T07:40:35.849Z,30.50
2017-06-21T07:43:03.330Z,30.50
2017-06-21T07:45:31.596Z,30.90
2017-06-21T07:47:59.074Z,30.90
2017-06-21T07:50:27.317Z,31.50
2017-06-21T07:52:54.906Z,31.50
2017-06-21T07:55:23.153Z,32.20
2017-06-21T07:57:50.633Z,32.20
2017-06-21T08:00:18.968Z,32.80
2017-06-21T08:02:46.448Z,33.00
2017-06-21T08:05:13.929Z,32.20
2017-06-21T08:07:42.194Z,33.00
2017-06-21T08:10:10.443Z,33.40
2017-06-21T08:12:37.925Z,33.40
2017-06-21T08:15:06.260Z,32.90
2017-06-21T08:17:33.741Z,32.90
2017-06-21T08:20:01.223Z,33.10
2017-06-21T08:22:29.493Z,33.20
2017-06-21T08:24:57.773Z,34.10
2017-06-21T08:27:26.021Z,34.40
2017-06-21T08:29:53.525Z,34.40
2017-06-21T08:32:21.005Z,34.70
2017-06-21T08:34:48.493Z,35.40
2017-06-21T08:37:15.994Z,35.90
2017-06-21T08:39:43.473Z,36.30
2017-06-21T08:42:10.957Z,35.10
2017-06-21T08:44:38.457Z,34.50
2017-06-21T08:47:05.942Z,34.40
2017-06-21T08:49:33.425Z,35.30
2017-06-21T08:52:00.950Z,35.20
2017-06-21T08:54:28.429Z,35.10
2017-06-21T08:56:55.927Z,35.60
2017-06-21T08:59:23.453Z,35.60
2017-06-21T09:01:50.938Z,36.10
2017-06-21T09:04:18.421Z,36.60
2017-06-21T09:06:46.934Z,36.80
2017-06-21T09:09:14.412Z,36.80
2017-06-21T09:11:41.888Z,36.60
2017-06-21T09:14:09.618Z,36.30
2017-06-21T09:16:37.097Z,36.50
2017-06-21T09:19:04.581Z,36.90
2017-06-21T09:21:32.082Z,37.10
2017-06-21T09:23:59.597Z,36.80
2017-06-21T09:26:27.842Z,36.90
2017-06-21T09:28:55.578Z,36.90
2017-06-21T09:31:23.057Z,37.30
2017-06-21T09:33:50.529Z,37.50
2017-06-21T09:36:18.023Z,37.50
2017-06-21T09:38:45.505Z,37.40
2017-06-21T09:41:12.981Z,37.20
2017-06-21T09:43:40.482Z,37.40
2017-06-21T09:46:08.730Z,36.70
2017-06-21T09:48:36.220Z,36.70
2017-06-21T09:51:04.485Z,36.60
2017-06-21T09:53:31.989Z,36.60
2017-06-21T09:55:59.469Z,36.80
2017-06-21T09:58:38.856Z,37.10
2017-06-21T10:01:06.369Z,36.40
2017-06-21T10:03:33.849Z,36.70
2017-06-21T10:06:02.130Z,36.90
2017-06-21T10:08:30.373Z,37.10
2017-06-21T10:10:57.962Z,37.10
2017-06-21T10:13:26.313Z,37.40
2017-06-21T10:15:53.798Z,37.40
2017-06-21T10:18:22.048Z,37.80
2017-06-21T10:20:49.550Z,37.80
2017-06-21T10:23:17.033Z,38.20
2017-06-21T10:25:44.509Z,38.60
2017-06-21T10:28:12.249Z,38.90
2017-06-21T10:30:39.725Z,38.70
2017-06-21T10:33:07.208Z,38.10
2017-06-21T10:35:34.711Z,37.80
2017-06-21T10:38:02.189Z,38.10
2017-06-21T10:40:29.669Z,38.10
2017-06-21T10:42:57.173Z,38.00
2017-06-21T10:45:24.705Z,38.20
2017-06-21T10:47:52.950Z,38.70
2017-06-21T10:50:20.846Z,38.60
2017-06-21T10:52:49.090Z,38.70
2017-06-21T10:55:16.569Z,38.60
2017-06-21T10:57:44.065Z,39.20
2017-06-21T11:00:11.541Z,39.30
2017-06-21T11:02:39.021Z,39.20
2017-06-21T11:05:06.513Z,38.90
2017-06-21T11:07:34.981Z,39.20
2017-06-21T11:10:03.217Z,38.90
2017-06-21T11:12:30.708Z,38.90
2017-06-21T11:14:58.189Z,38.60
2017-06-21T11:17:25.735Z,38.60
2017-06-21T11:19:53.253Z,38.50
2017-06-21T11:22:20.734Z,38.20
2017-06-21T11:24:48.222Z,38.40
2017-06-21T11:27:15.729Z,38.80
2017-06-21T11:29:43.209Z,38.70
2017-06-21T11:32:10.689Z,39.10
2017-06-21T11:34:38.189Z,39.20
2017-06-21T11:37:05.672Z,39.40
2017-06-21T11:39:33.925Z,39.80
2017-06-21T11:42:01.421Z,39.70
2017-06-21T11:44:29.948Z,39.70
2017-06-21T11:46:57.425Z,39.70
2017-06-21T11:49:24.927Z,39.60
2017-06-21T11:51:53.171Z,39.40
2017-06-21T11:54:20.914Z,39.40
2017-06-21T11:56:48.429Z,39.70
2017-06-21T11:59:15.937Z,40.00
2017-06-21T12:01:43.439Z,40.00
2017-06-21T12:04:10.989Z,39.70
2017-06-21T12:06:39.324Z,39.00
2017-06-21T12:09:06.869Z,39.00
2017-06-21T12:11:34.401Z,39.10
2017-06-21T12:14:01.921Z,39.20
2017-06-21T12:16:29.393Z,39.70
2017-06-21T12:18:57.739Z,39.40
2017-06-21T12:21:25.225Z,39.30
2017-06-21T12:23:52.936Z,39.60
2017-06-21T12:26:20.432Z,39.40
2017-06-21T12:28:48.721Z,39.30
2017-06-21T12:31:16.965Z,39.20
2017-06-21T12:33:44.464Z,39.10
2017-06-21T12:36:12.716Z,39.10
2017-06-21T12:38:40.973Z,39.30
2017-06-21T12:41:08.509Z,39.30
2017-06-21T12:43:36.014Z,39.00
2017-06-21T12:46:03.589Z,38.80
2017-06-21T12:48:32.109Z,38.50
2017-06-21T12:50:59.593Z,38.40
2017-06-21T12:53:27.187Z,38.40
2017-06-21T12:55:54.693Z,38.20
2017-06-21T12:58:22.161Z,38.40
2017-06-21T13:00:49.633Z,38.10
2017-06-21T13:03:17.126Z,37.80
2017-06-21T13:05:44.597Z,37.70
2017-06-21T13:08:12.073Z,37.30
2017-06-21T13:10:39.569Z,36.60
2017-06-21T13:13:07.037Z,36.60
2017-06-21T13:15:35.273Z,36.60
2017-06-21T13:18:02.760Z,36.60
2017-06-21T13:20:30.238Z,36.50
2017-06-21T13:22:58.478Z,35.60
2017-06-21T13:25:25.970Z,35.50
2017-06-21T13:27:53.448Z,35.20
2017-06-21T13:30:20.921Z,35.20
2017-06-21T13:32:48.417Z,35.00
2017-06-21T13:35:15.888Z,35.10
2017-06-21T13:37:44.133Z,35.10
2017-06-21T13:40:11.625Z,35.10
2017-06-21T13:42:39.101Z,34.90
2017-06-21T13:45:06.570Z,34.70
2017-06-21T13:47:34.075Z,35.00
2017-06-21T13:50:01.545Z,35.10
2017-06-21T13:52:29.781Z,34.80
2017-06-21T13:54:57.272Z,34.80
2017-06-21T13:57:24.745Z,34.40
2017-06-21T13:59:52.218Z,34.60
2017-06-21T14:02:19.713Z,34.60
2017-06-21T14:04:47.185Z,34.70
2017-06-21T14:07:14.703Z,34.80
2017-06-21T14:09:42.194Z,34.70
2017-06-21T14:12:09.930Z,34.50
2017-06-21T14:14:37.401Z,34.40
2017-06-21T14:17:04.893Z,34.30
2017-06-21T14:19:33.129Z,34.30
2017-06-21T14:22:00.605Z,34.30
2017-06-21T14:24:28.097Z,34.40
2017-06-21T14:26:55.569Z,34.50
2017-06-21T14:29:23.053Z,34.40
2017-06-21T14:31:50.545Z,34.20
2017-06-21T14:34:18.017Z,34.00
2017-06-21T14:36:46.253Z,34.00
2017-06-21T14:39:13.759Z,33.90
2017-06-21T14:41:41.232Z,34.00
2017-06-21T14:44:08.704Z,33.90
2017-06-21T14:46:36.193Z,33.90
2017-06-21T14:49:03.665Z,33.60
2017-06-21T14:51:31.136Z,33.50
2017-06-21T14:53:59.393Z,33.80
2017-06-21T14:56:26.866Z,33.70
2017-06-21T14:58:55.117Z,33.80
2017-06-21T15:01:22.613Z,33.80
2017-06-21T15:03:50.085Z,33.70
2017-06-21T15:06:17.561Z,33.50
2017-06-21T15:08:45.061Z,33.40
2017-06-21T15:11:13.426Z,33.40
2017-06-21T15:13:41.693Z,33.30
2017-06-21T15:16:09.190Z,33.30
2017-06-21T15:18:36.664Z,33.20
2017-06-21T15:21:04.141Z,33.10
2017-06-21T15:23:31.639Z,33.10
2017-06-21T15:25:59.110Z,33.10
2017-06-21T15:28:27.353Z,33.30
2017-06-21T15:30:54.849Z,33.30
2017-06-21T15:33:23.085Z,33.30
2017-06-21T15:35:50.565Z,33.30
2017-06-21T15:38:18.824Z,33.30
2017-06-21T15:40:46.609Z,33.20
2017-06-21T15:43:14.102Z,33.30
2017-06-21T15:45:41.621Z,33.20
2017-06-21T15:48:09.857Z,33.10
2017-06-21T15:50:37.328Z,33.10
2017-06-21T15:53:04.817Z,33.10
2017-06-21T15:55:33.075Z,33.00
2017-06-21T15:58:00.553Z,33.00
2017-06-21T16:00:28.812Z,32.90
2017-06-21T16:02:57.065Z,32.70
2017-06-21T16:05:24.537Z,32.70
2017-06-21T16:07:52.070Z,32.70
2017-06-21T16:10:19.545Z,32.70
2017-06-21T16:12:47.017Z,32.70
2017-06-21T16:15:15.284Z,32.80
2017-06-21T16:17:42.793Z,32.70
2017-06-21T16:20:10.270Z,32.70
2017-06-21T16:22:37.765Z,32.70
2017-06-21T16:25:06.005Z,32.60
2017-06-21T16:27:33.481Z,32.60
2017-06-21T16:30:00.973Z,32.60
2017-06-21T16:32:28.445Z,32.50
2017-06-21T16:34:55.925Z,32.50
2017-06-21T16:37:23.417Z,32.40
2017-06-21T16:39:50.893Z,32.30
2017-06-21T16:42:19.133Z,32.30
2017-06-21T16:44:46.629Z,32.20
2017-06-21T16:47:14.873Z,32.10
2017-06-21T16:49:42.341Z,32.10
2017-06-21T16:52:10.125Z,32.00
2017-06-21T16:54:37.706Z,31.90
2017-06-21T16:57:05.182Z,31.90
2017-06-21T16:59:32.676Z,31.90
2017-06-21T17:02:00.146Z,31.90
2017-06-21T17:04:28.389Z,31.90
2017-06-21T17:06:55.885Z,31.90
2017-06-21T17:09:24.121Z,31.90
2017-06-21T17:11:51.970Z,31.90
2017-06-21T17:14:19.465Z,31.80
2017-06-21T17:16:46.945Z,31.70
2017-06-21T17:19:14.417Z,31.60
2017-06-21T17:21:41.909Z,31.60
2017-06-21T17:24:09.421Z,31.50
2017-06-21T17:26:37.209Z,31.40
2017-06-21T17:29:04.706Z,31.30
2017-06-21T17:31:32.185Z,31.20
2017-06-21T17:34:00.426Z,31.10
2017-06-21T17:36:27.934Z,31.00
2017-06-21T17:38:55.405Z,31.00
2017-06-21T17:41:23.002Z,30.90
2017-06-21T17:43:50.493Z,30.80
2017-06-21T17:46:18.733Z,30.70
2017-06-21T17:48:46.205Z,30.70
2017-06-21T17:51:13.701Z,30.60
2017-06-21T17:53:41.177Z,30.50
2017-06-21T17:56:08.653Z,30.40
2017-06-21T17:58:36.145Z,30.40
2017-06-21T18:01:04.386Z,30.20
2017-06-21T18:03:31.859Z,30.10
2017-06-21T18:05:59.357Z,30.10
2017-06-21T18:08:26.897Z,30.00
2017-06-21T18:10:55.142Z,30.00
2017-06-21T18:13:29.523Z,29.90
2017-06-21T18:15:57.286Z,29.90
2017-06-21T18:18:25.057Z,29.80
2017-06-21T18:20:52.552Z,29.70
2017-06-21T18:23:20.023Z,29.70
2017-06-21T18:25:48.271Z,29.50
2017-06-21T18:28:16.101Z,29.40
2017-06-21T18:30:43.667Z,29.40
2017-06-21T18:33:11.187Z,29.30
2017-06-21T18:35:39.464Z,29.10
2017-06-21T18:38:07.758Z,29.00
2017-06-21T18:40:35.256Z,28.90
2017-06-21T18:43:02.810Z,28.90
2017-06-21T18:45:30.325Z,28.80
2017-06-21T18:47:57.805Z,28.60
2017-06-21T18:50:25.303Z,28.40
2017-06-21T18:52:52.776Z,28.30
2017-06-21T18:55:21.020Z,27.80
2017-06-21T18:57:48.509Z,27.80
2017-06-21T19:00:16.746Z,27.30
2017-06-21T19:02:44.511Z,27.20
2017-06-21T19:05:12.012Z,27.10
2017-06-21T19:07:40.257Z,26.90
2017-06-21T19:10:07.737Z,26.80
2017-06-21T19:12:36.005Z,26.70
2017-06-21T19:15:04.261Z,26.60
2017-06-21T19:17:31.734Z,26.50
2017-06-21T19:19:59.238Z,26.50
2017-06-21T19:22:26.713Z,26.40
2017-06-21T19:24:54.221Z,26.40
2017-06-21T19:27:22.485Z,26.20
2017-06-21T19:29:49.964Z,26.20
2017-06-21T19:32:17.453Z,26.10
2017-06-21T19:34:44.967Z,26.10
2017-06-21T19:37:13.209Z,26.00
2017-06-21T19:39:40.697Z,26.00
2017-06-21T19:42:08.237Z,25.90
2017-06-21T19:44:35.721Z,25.90
2017-06-21T19:47:11.598Z,25.80
2017-06-21T19:49:45.773Z,25.70
2017-06-21T19:52:13.745Z,25.60
2017-06-21T19:54:41.989Z,25.40
2017-06-21T19:57:09.465Z,25.40
2017-06-21T19:59:37.250Z,25.40
2017-06-21T20:02:05.494Z,25.20
2017-06-21T20:04:32.974Z,25.10
2017-06-21T20:07:01.242Z,24.90
2017-06-21T20:09:28.725Z,24.90
2017-06-21T20:11:56.209Z,24.80
2017-06-21T20:14:23.717Z,24.70
2017-06-21T20:16:51.969Z,24.60
2017-06-21T20:19:19.458Z,24.60
2017-06-21T20:21:47.726Z,24.50
2017-06-21T20:24:15.982Z,24.40
2017-06-21T20:26:43.465Z,24.40
2017-06-21T20:29:11.729Z,24.30
2017-06-21T20:31:39.210Z,24.30
2017-06-21T20:34:06.689Z,24.30
2017-06-21T20:36:34.194Z,24.10
2017-06-21T20:39:01.674Z,24.00
2017-06-21T20:41:29.921Z,23.80
2017-06-21T20:43:57.478Z,23.80
2017-06-21T20:46:24.958Z,23.80
2017-06-21T20:48:53.205Z,23.70
2017-06-21T20:51:20.709Z,23.70
2017-06-21T20:53:48.185Z,23.60
2017-06-21T20:56:15.661Z,23.60
2017-06-21T20:58:43.165Z,23.40
2017-06-21T21:01:11.409Z,23.30
2017-06-21T21:03:38.889Z,23.30
2017-06-21T21:06:07.165Z,23.20
2017-06-21T21:08:35.413Z,23.10
2017-06-21T21:11:02.890Z,23.00
2017-06-21T21:13:30.390Z,23.00
2017-06-21T21:15:57.868Z,22.90
2017-06-21T21:18:25.349Z,22.80
2017-06-21T21:20:52.852Z,22.70
2017-06-21T21:23:20.329Z,22.60
2017-06-21T21:25:47.846Z,22.60
2017-06-21T21:28:16.116Z,22.30
2017-06-21T21:30:44.366Z,22.30
2017-06-21T21:33:12.101Z,22.20
2017-06-21T21:35:39.598Z,22.30
2017-06-21T21:38:07.073Z,22.30
2017-06-21T21:40:35.322Z,22.10
2017-06-21T21:43:02.825Z,22.10
2017-06-21T21:45:30.345Z,22.00
2017-06-21T21:47:57.907Z,21.90
2017-06-21T21:50:25.424Z,21.80
2017-06-21T21:52:52.900Z,21.80
2017-06-21T21:55:20.381Z,21.70
2017-06-21T21:57:48.725Z,21.70
2017-06-21T22:00:16.206Z,21.60
2017-06-21T22:02:43.685Z,21.50
2017-06-21T22:05:11.949Z,21.40
2017-06-21T22:07:39.664Z,21.40
2017-06-21T22:10:07.145Z,21.30
2017-06-21T22:12:34.836Z,21.30
2017-06-21T22:15:03.081Z,21.10
2017-06-21T22:17:30.556Z,21.10
2017-06-21T22:19:58.057Z,21.10
2017-06-21T22:22:25.538Z,20.90
2017-06-21T22:24:53.017Z,20.90
2017-06-21T22:27:20.526Z,20.90
2017-06-21T22:29:48.058Z,21.00
2017-06-21T22:32:16.305Z,21.00
2017-06-21T22:34:43.801Z,21.00
2017-06-21T22:37:12.045Z,21.00
2017-06-21T22:39:39.526Z,21.00
2017-06-21T22:42:07.805Z,21.00
2017-06-21T22:44:36.053Z,21.00
2017-06-21T22:47:03.529Z,21.00
2017-06-21T22:49:31.809Z,20.90
2017-06-21T22:52:00.330Z,20.90
2017-06-21T22:54:27.813Z,20.80
2017-06-21T22:56:55.310Z,20.70
2017-06-21T22:59:23.553Z,20.60
2017-06-21T23:01:51.033Z,20.60
2017-06-21T23:04:19.297Z,20.50
2017-06-21T23:06:46.777Z,20.50
2017-06-21T23:09:14.261Z,20.50
2017-06-21T23:11:41.757Z,20.50
2017-06-21T23:14:09.237Z,20.50
2017-06-21T23:16:37.485Z,20.40
2017-06-21T23:19:04.981Z,20.40
2017-06-21T23:21:32.533Z,20.30
2017-06-21T23:24:00.777Z,20.10
2017-06-21T23:26:28.279Z,20.10
2017-06-21T23:28:55.758Z,20.00
2017-06-21T23:31:23.277Z,20.00
2017-06-21T23:33:51.545Z,19.90
2017-06-21T23:36:19.885Z,19.90
2017-06-21T23:38:47.361Z,19.90
2017-06-21T23:41:14.865Z,19.90
2017-06-21T23:43:42.346Z,19.90
2017-06-21T23:46:09.829Z,19.90
2017-06-21T23:48:37.333Z,19.80
2017-06-21T23:51:04.813Z,19.80
2017-06-21T23:53:32.294Z,19.60
2017-06-21T23:55:59.886Z,19.50
2017-06-21T23:58:28.414Z,19.30
